Aviation Digital Data Service (ADDS)

Output produced by METARs form (1647 UTC 16 June 2019)
found at http://www.aviationweather.gov/metar/data/
 
METAR text: RJKA 161000Z 31005KT 270V360 9999 FEW030 BKN/// 25/16 Q1010
Conditions at: RJKA (AMAMI AIRPORT , JP) observed 1000 UTC 16 June 2019
Temperature: 25.0°C (77°F)
Dewpoint: 16.0°C (61°F) [RH = 57%]
Pressure (altimeter): 29.82 inches Hg (1010.0 mb)
Winds: from the NW (310 degrees) at 6 MPH (5 knots; 2.6 m/s)
Visibility: 6 or more miles (10+ km)
Ceiling: at least 12,000 feet AGL
Clouds: few clouds at 3000 feet AGL
Weather: no significant weather observed at this time

METAR text: RJKA 160900Z 31007KT 250V350 9999 FEW030 BKN/// 26/17 Q1009
Conditions at: RJKA (AMAMI AIRPORT , JP) observed 0900 UTC 16 June 2019
Temperature: 26.0°C (79°F)
Dewpoint: 17.0°C (63°F) [RH = 58%]
Pressure (altimeter): 29.79 inches Hg (1009.0 mb)
Winds: from the NW (310 degrees) at 8 MPH (7 knots; 3.6 m/s)
Visibility: 6 or more miles (10+ km)
Ceiling: at least 12,000 feet AGL
Clouds: few clouds at 3000 feet AGL
Weather: no significant weather observed at this time

METAR text: RJKA 160800Z 29008KT 250V330 9999 FEW035 BKN/// 27/19 Q1009
Conditions at: RJKA (AMAMI AIRPORT , JP) observed 0800 UTC 16 June 2019
Temperature: 27.0°C (81°F)
Dewpoint: 19.0°C (66°F) [RH = 62%]
Pressure (altimeter): 29.79 inches Hg (1009.0 mb)
Winds: from the WNW (290 degrees) at 9 MPH (8 knots; 4.1 m/s)
Visibility: 6 or more miles (10+ km)
Ceiling: at least 12,000 feet AGL
Clouds: few clouds at 3500 feet AGL
Weather: no significant weather observed at this time

METAR text: RJKA 160700Z 32011KT 9999 FEW035 BKN/// 27/18 Q1009
Conditions at: RJKA (AMAMI AIRPORT , JP) observed 0700 UTC 16 June 2019
Temperature: 27.0°C (81°F)
Dewpoint: 18.0°C (64°F) [RH = 58%]
Pressure (altimeter): 29.79 inches Hg (1009.0 mb)
Winds: from the NW (320 degrees) at 13 MPH (11 knots; 5.7 m/s)
Visibility: 6 or more miles (10+ km)
Ceiling: at least 12,000 feet AGL
Clouds: few clouds at 3500 feet AGL
Weather: no significant weather observed at this time

METAR text: RJKA 160600Z 30009KT 250V360 9999 FEW030 BKN/// 27/18 Q1009
Conditions at: RJKA (AMAMI AIRPORT , JP) observed 0600 UTC 16 June 2019
Temperature: 27.0°C (81°F)
Dewpoint: 18.0°C (64°F) [RH = 58%]
Pressure (altimeter): 29.79 inches Hg (1009.0 mb)
Winds: from the WNW (300 degrees) at 10 MPH (9 knots; 4.6 m/s)
Visibility: 6 or more miles (10+ km)
Ceiling: at least 12,000 feet AGL
Clouds: few clouds at 3000 feet AGL
Weather: no significant weather observed at this time

METAR text: RJKA 160500Z 31012KT 9999 FEW035 BKN/// 27/19 Q1009
Conditions at: RJKA (AMAMI AIRPORT , JP) observed 0500 UTC 16 June 2019
Temperature: 27.0°C (81°F)
Dewpoint: 19.0°C (66°F) [RH = 62%]
Pressure (altimeter): 29.79 inches Hg (1009.0 mb)
Winds: from the NW (310 degrees) at 14 MPH (12 knots; 6.2 m/s)
Visibility: 6 or more miles (10+ km)
Ceiling: at least 12,000 feet AGL
Clouds: few clouds at 3500 feet AGL
Weather: no significant weather observed at this time

METAR text: RJKA 160400Z 27011KT 9999 FEW035 BKN/// 28/19 Q1009
Conditions at: RJKA (AMAMI AIRPORT , JP) observed 0400 UTC 16 June 2019
Temperature: 28.0°C (82°F)
Dewpoint: 19.0°C (66°F) [RH = 58%]
Pressure (altimeter): 29.79 inches Hg (1009.0 mb)
Winds: from the W (270 degrees) at 13 MPH (11 knots; 5.7 m/s)
Visibility: 6 or more miles (10+ km)
Ceiling: at least 12,000 feet AGL
Clouds: few clouds at 3500 feet AGL
Weather: no significant weather observed at this time

METAR text: RJKA 160300Z 31010KT 260V350 9999 FEW035 SCT/// 27/18 Q1009
Conditions at: RJKA (AMAMI AIRPORT , JP) observed 0300 UTC 16 June 2019
Temperature: 27.0°C (81°F)
Dewpoint: 18.0°C (64°F) [RH = 58%]
Pressure (altimeter): 29.79 inches Hg (1009.0 mb)
Winds: from the NW (310 degrees) at 12 MPH (10 knots; 5.1 m/s)
Visibility: 6 or more miles (10+ km)
Ceiling: at least 12,000 feet AGL
Clouds: few clouds at 3500 feet AGL
Weather: no significant weather observed at this time

METAR text: RJKA 160200Z 31011KT 9999 FEW030 SCT035 BKN/// 27/19 Q1009
Conditions at: RJKA (AMAMI AIRPORT , JP) observed 0200 UTC 16 June 2019
Temperature: 27.0°C (81°F)
Dewpoint: 19.0°C (66°F) [RH = 62%]
Pressure (altimeter): 29.79 inches Hg (1009.0 mb)
Winds: from the NW (310 degrees) at 13 MPH (11 knots; 5.7 m/s)
Visibility: 6 or more miles (10+ km)
Ceiling: at least 12,000 feet AGL
Clouds: few clouds at 3000 feet AGL
scattered clouds at 3500 feet AGL
Weather: no significant weather observed at this time

METAR text: RJKA 160100Z 30009G19KT 240V350 9999 FEW030 SCT035 BKN/// 27/20 Q1008
Conditions at: RJKA (AMAMI AIRPORT , JP) observed 0100 UTC 16 June 2019
Temperature: 27.0°C (81°F)
Dewpoint: 20.0°C (68°F) [RH = 66%]
Pressure (altimeter): 29.76 inches Hg (1008.0 mb)
Winds: from the WNW (300 degrees) at 10 MPH (9 knots; 4.6 m/s)
gusting to 22 MPH (19 knots; 9.8 m/s)
Visibility: 6 or more miles (10+ km)
Ceiling: at least 12,000 feet AGL
Clouds: few clouds at 3000 feet AGL
scattered clouds at 3500 feet AGL
Weather: no significant weather observed at this time

METAR text: RJKA 160000Z 28009KT 240V320 9999 FEW030 BKN/// 27/20 Q1008
Conditions at: RJKA (AMAMI AIRPORT , JP) observed 0000 UTC 16 June 2019
Temperature: 27.0°C (81°F)
Dewpoint: 20.0°C (68°F) [RH = 66%]
Pressure (altimeter): 29.76 inches Hg (1008.0 mb)
Winds: from the W (280 degrees) at 10 MPH (9 knots; 4.6 m/s)
Visibility: 6 or more miles (10+ km)
Ceiling: at least 12,000 feet AGL
Clouds: few clouds at 3000 feet AGL
Weather: no significant weather observed at this time

METAR text: RJKA 152300Z 29008KT 250V330 9999 FEW025 SCT030 BKN/// 26/20 Q1008
Conditions at: RJKA (AMAMI AIRPORT , JP) observed 2300 UTC 15 June 2019
Temperature: 26.0°C (79°F)
Dewpoint: 20.0°C (68°F) [RH = 70%]
Pressure (altimeter): 29.76 inches Hg (1008.0 mb)
Winds: from the WNW (290 degrees) at 9 MPH (8 knots; 4.1 m/s)
Visibility: 6 or more miles (10+ km)
Ceiling: at least 12,000 feet AGL
Clouds: few clouds at 2500 feet AGL
scattered clouds at 3000 feet AGL
Weather: no significant weather observed at this time

METAR text: RJKA 152200Z 30009KT 270V340 9999 FEW030 BKN/// 25/19 Q1007
Conditions at: RJKA (AMAMI AIRPORT , JP) observed 2200 UTC 15 June 2019
Temperature: 25.0°C (77°F)
Dewpoint: 19.0°C (66°F) [RH = 69%]
Pressure (altimeter): 29.73 inches Hg (1007.0 mb)
Winds: from the WNW (300 degrees) at 10 MPH (9 knots; 4.6 m/s)
Visibility: 6 or more miles (10+ km)
Ceiling: at least 12,000 feet AGL
Clouds: few clouds at 3000 feet AGL
Weather: no significant weather observed at this time

METAR text: RJKA 152130Z 29008KT 240V320 9999 FEW025 BKN/// 24/19 Q1007
Conditions at: RJKA (AMAMI AIRPORT , JP) observed 2130 UTC 15 June 2019
Temperature: 24.0°C (75°F)
Dewpoint: 19.0°C (66°F) [RH = 74%]
Pressure (altimeter): 29.73 inches Hg (1007.0 mb)
Winds: from the WNW (290 degrees) at 9 MPH (8 knots; 4.1 m/s)
Visibility: 6 or more miles (10+ km)
Ceiling: at least 12,000 feet AGL
Clouds: few clouds at 2500 feet AGL
Weather: no significant weather observed at this time

METAR text: RJKA 151000Z 29007KT 250V330 9999 FEW025 SCT030 24/19 Q1003
Conditions at: RJKA (AMAMI AIRPORT , JP) observed 1000 UTC 15 June 2019
Temperature: 24.0°C (75°F)
Dewpoint: 19.0°C (66°F) [RH = 74%]
Pressure (altimeter): 29.62 inches Hg (1003.0 mb)
Winds: from the WNW (290 degrees) at 8 MPH (7 knots; 3.6 m/s)
Visibility: 6 or more miles (10+ km)
Ceiling: at least 12,000 feet AGL
Clouds: few clouds at 2500 feet AGL
scattered clouds at 3000 feet AGL
Weather: no significant weather observed at this time

METAR text: RJKA 150900Z 31010KT 9999 FEW030 SCT035 25/19 Q1002
Conditions at: RJKA (AMAMI AIRPORT , JP) observed 0900 UTC 15 June 2019
Temperature: 25.0°C (77°F)
Dewpoint: 19.0°C (66°F) [RH = 69%]
Pressure (altimeter): 29.59 inches Hg (1002.0 mb)
Winds: from the NW (310 degrees) at 12 MPH (10 knots; 5.1 m/s)
Visibility: 6 or more miles (10+ km)
Ceiling: at least 12,000 feet AGL
Clouds: few clouds at 3000 feet AGL
scattered clouds at 3500 feet AGL
Weather: no significant weather observed at this time

METAR text: RJKA 150800Z 31012KT 280V350 9999 FEW030 SCT035 25/19 Q1002
Conditions at: RJKA (AMAMI AIRPORT , JP) observed 0800 UTC 15 June 2019
Temperature: 25.0°C (77°F)
Dewpoint: 19.0°C (66°F) [RH = 69%]
Pressure (altimeter): 29.59 inches Hg (1002.0 mb)
Winds: from the NW (310 degrees) at 14 MPH (12 knots; 6.2 m/s)
Visibility: 6 or more miles (10+ km)
Ceiling: at least 12,000 feet AGL
Clouds: few clouds at 3000 feet AGL
scattered clouds at 3500 feet AGL
Weather: no significant weather observed at this time

METAR text: RJKA 150700Z 31012KT 270V340 9999 FEW030 SCT035 26/19 Q1001
Conditions at: RJKA (AMAMI AIRPORT , JP) observed 0700 UTC 15 June 2019
Temperature: 26.0°C (79°F)
Dewpoint: 19.0°C (66°F) [RH = 65%]
Pressure (altimeter): 29.56 inches Hg (1001.0 mb)
Winds: from the NW (310 degrees) at 14 MPH (12 knots; 6.2 m/s)
Visibility: 6 or more miles (10+ km)
Ceiling: at least 12,000 feet AGL
Clouds: few clouds at 3000 feet AGL
scattered clouds at 3500 feet AGL
Weather: no significant weather observed at this time

METAR text: RJKA 150600Z 31015KT 280V340 9999 FEW030 27/20 Q1001
Conditions at: RJKA (AMAMI AIRPORT , JP) observed 0600 UTC 15 June 2019
Temperature: 27.0°C (81°F)
Dewpoint: 20.0°C (68°F) [RH = 66%]
Pressure (altimeter): 29.56 inches Hg (1001.0 mb)
Winds: from the NW (310 degrees) at 17 MPH (15 knots; 7.7 m/s)
Visibility: 6 or more miles (10+ km)
Ceiling: at least 12,000 feet AGL
Clouds: few clouds at 3000 feet AGL
Weather: no significant weather observed at this time

METAR text: RJKA 150500Z 32018KT 280V350 9999 FEW025 SCT030 26/19 Q1001
Conditions at: RJKA (AMAMI AIRPORT , JP) observed 0500 UTC 15 June 2019
Temperature: 26.0°C (79°F)
Dewpoint: 19.0°C (66°F) [RH = 65%]
Pressure (altimeter): 29.56 inches Hg (1001.0 mb)
Winds: from the NW (320 degrees) at 21 MPH (18 knots; 9.3 m/s)
Visibility: 6 or more miles (10+ km)
Ceiling: at least 12,000 feet AGL
Clouds: few clouds at 2500 feet AGL
scattered clouds at 3000 feet AGL
Weather: no significant weather observed at this time